sensor_id;sensor_type;location;lat;lon;timestamp;pressure;altitude;pressure_sealevel;temperature;humidity
1736;BME280;865;53.672;10.250;2024-03-08T00:00:11;102045.72;;;0.12;100.00
1736;BME280;865;53.672;10.250;2024-03-08T00:02:43;102045.88;;;0.15;100.00
1736;BME280;865;53.672;10.250;2024-03-08T00:05:10;102038.91;;;0.13;100.00
1736;BME280;865;53.672;10.250;2024-03-08T00:07:39;102041.34;;;0.10;100.00
1736;BME280;865;53.672;10.250;2024-03-08T00:10:08;102039.44;;;0.06;100.00
1736;BME280;865;53.672;10.250;2024-03-08T00:12:41;102037.34;;;-0.03;100.00
1736;BME280;865;53.672;10.250;2024-03-08T00:15:13;102039.16;;;-0.01;100.00
1736;BME280;865;53.672;10.250;2024-03-08T00:17:45;102035.72;;;-0.01;100.00
1736;BME280;865;53.672;10.250;2024-03-08T00:20:12;102030.47;;;-0.04;100.00
1736;BME280;865;53.672;10.250;2024-03-08T00:22:39;102027.84;;;-0.06;100.00
1736;BME280;865;53.672;10.250;2024-03-08T00:25:07;102030.53;;;-0.03;100.00
1736;BME280;865;53.672;10.250;2024-03-08T00:27:37;102023.22;;;-0.13;100.00
1736;BME280;865;53.672;10.250;2024-03-08T00:30:07;102023.09;;;-0.16;100.00
1736;BME280;865;53.672;10.250;2024-03-08T00:32:34;102022.09;;;-0.19;100.00
1736;BME280;865;53.672;10.250;2024-03-08T00:35:02;102020.34;;;-0.20;100.00
1736;BME280;865;53.672;10.250;2024-03-08T00:37:29;102012.56;;;-0.22;100.00
1736;BME280;865;53.672;10.250;2024-03-08T00:39:55;102014.63;;;-0.15;100.00
1736;BME280;865;53.672;10.250;2024-03-08T00:42:22;102014.63;;;-0.15;100.00
1736;BME280;865;53.672;10.250;2024-03-08T00:44:49;102006.09;;;-0.14;100.00
1736;BME280;865;53.672;10.250;2024-03-08T00:47:18;102008.31;;;-0.21;100.00
1736;BME280;865;53.672;10.250;2024-03-08T00:49:45;102005.69;;;-0.23;100.00
1736;BME280;865;53.672;10.250;2024-03-08T00:52:13;102009.13;;;-0.22;100.00
1736;BME280;865;53.672;10.250;2024-03-08T00:54:40;102008.03;;;-0.28;100.00
1736;BME280;865;53.672;10.250;2024-03-08T00:57:07;102003.78;;;-0.27;100.00
1736;BME280;865;53.672;10.250;2024-03-08T00:59:33;102005.28;;;-0.32;100.00
1736;BME280;865;53.672;10.250;2024-03-08T01:02:01;102005.16;;;-0.35;100.00
1736;BME280;865;53.672;10.250;2024-03-08T01:04:28;102009.38;;;-0.36;100.00
1736;BME280;865;53.672;10.250;2024-03-08T01:06:58;102000.16;;;-0.32;100.00
1736;BME280;865;53.672;10.250;2024-03-08T01:09:26;101997.47;;;-0.35;100.00
1736;BME280;865;53.672;10.250;2024-03-08T01:11:54;101995.78;;;-0.35;100.00
1736;BME280;865;53.672;10.250;2024-03-08T01:14:21;101994.63;;;-0.41;100.00
1736;BME280;865;53.672;10.250;2024-03-08T01:16:56;101993.41;;;-0.50;100.00
1736;BME280;865;53.672;10.250;2024-03-08T01:19:22;101984.59;;;-0.55;100.00
1736;BME280;865;53.672;10.250;2024-03-08T01:21:51;101981.38;;;-0.51;100.00
1736;BME280;865;53.672;10.250;2024-03-08T01:24:17;101984.88;;;-0.49;100.00
1736;BME280;865;53.672;10.250;2024-03-08T01:26:44;101977.00;;;-0.53;100.00
1736;BME280;865;53.672;10.250;2024-03-08T01:29:11;101974.75;;;-0.65;100.00
1736;BME280;865;53.672;10.250;2024-03-08T01:31:37;101969.63;;;-0.65;100.00
1736;BME280;865;53.672;10.250;2024-03-08T01:34:04;101967.22;;;-0.62;100.00
1736;BME280;865;53.672;10.250;2024-03-08T01:36:30;101965.16;;;-0.69;100.00
1736;BME280;865;53.672;10.250;2024-03-08T01:38:57;101959.53;;;-0.62;100.00
1736;BME280;865;53.672;10.250;2024-03-08T01:41:24;101957.28;;;-0.54;100.00
1736;BME280;865;53.672;10.250;2024-03-08T01:43:50;101950.47;;;-0.54;100.00
1736;BME280;865;53.672;10.250;2024-03-08T01:46:19;101947.63;;;-0.60;100.00
1736;BME280;865;53.672;10.250;2024-03-08T01:48:48;101945.91;;;-0.61;100.00
1736;BME280;865;53.672;10.250;2024-03-08T01:51:15;101939.34;;;-0.74;100.00
1736;BME280;865;53.672;10.250;2024-03-08T01:53:43;101933.41;;;-0.73;100.00
1736;BME280;865;53.672;10.250;2024-03-08T01:56:13;101935.38;;;-0.67;100.00
1736;BME280;865;53.672;10.250;2024-03-08T01:58:43;101927.69;;;-0.67;100.00
1736;BME280;865;53.672;10.250;2024-03-08T02:01:13;101923.44;;;-0.66;100.00
1736;BME280;865;53.672;10.250;2024-03-08T02:03:43;101921.75;;;-0.66;100.00
1736;BME280;865;53.672;10.250;2024-03-08T02:06:12;101910.31;;;-0.74;100.00
1736;BME280;865;53.672;10.250;2024-03-08T02:08:45;101917.56;;;-0.64;100.00
1736;BME280;865;53.672;10.250;2024-03-08T02:11:13;101917.34;;;-0.69;100.00
1736;BME280;865;53.672;10.250;2024-03-08T02:13:40;101914.88;;;-0.67;100.00
1736;BME280;865;53.672;10.250;2024-03-08T02:16:07;101913.91;;;-0.69;100.00
1736;BME280;865;53.672;10.250;2024-03-08T02:18:36;101914.88;;;-0.67;100.00
1736;BME280;865;53.672;10.250;2024-03-08T02:21:05;101908.78;;;-0.69;100.00
1736;BME280;865;53.672;10.250;2024-03-08T02:23:32;101910.44;;;-0.71;100.00
1736;BME280;865;53.672;10.250;2024-03-08T02:25:59;101906.84;;;-0.75;100.00
1736;BME280;865;53.672;10.250;2024-03-08T02:28:26;101910.31;;;-0.74;100.00
1736;BME280;865;53.672;10.250;2024-03-08T02:30:53;101906.38;;;-0.85;100.00
1736;BME280;865;53.672;10.250;2024-03-08T02:33:24;101898.69;;;-0.85;100.00
1736;BME280;865;53.672;10.250;2024-03-08T02:35:51;101898.75;;;-0.84;100.00
1736;BME280;865;53.672;10.250;2024-03-08T02:38:20;101902.63;;;-0.74;100.00
1736;BME280;865;53.672;10.250;2024-03-08T02:40:48;101893.28;;;-0.72;100.00
1736;BME280;865;53.672;10.250;2024-03-08T02:43:17;101903.22;;;-0.80;100.00
1736;BME280;865;53.672;10.250;2024-03-08T02:45:48;101906.78;;;-0.76;100.00
1736;BME280;865;53.672;10.250;2024-03-08T02:48:16;101902.56;;;-0.94;100.00
1736;BME280;865;53.672;10.250;2024-03-08T02:50:43;101906.47;;;-1.02;100.00
1736;BME280;865;53.672;10.250;2024-03-08T02:53:12;101906.31;;;-1.05;100.00
1736;BME280;865;53.672;10.250;2024-03-08T02:55:39;101904.28;;;-1.12;100.00
1736;BME280;865;53.672;10.250;2024-03-08T02:58:08;101903.69;;;-1.06;100.00
1736;BME280;865;53.672;10.250;2024-03-08T03:00:37;101902.53;;;-0.95;100.00
1736;BME280;865;53.672;10.250;2024-03-08T03:03:05;101894.59;;;-1.00;100.00
1736;BME280;865;53.672;10.250;2024-03-08T03:05:33;101897.75;;;-1.05;100.00
1736;BME280;865;53.672;10.250;2024-03-08T03:08:00;101893.38;;;-1.08;100.00
1736;BME280;865;53.672;10.250;2024-03-08T03:10:27;101897.72;;;-1.07;100.00
1736;BME280;865;53.672;10.250;2024-03-08T03:12:53;101896.22;;;-1.02;100.00
1736;BME280;865;53.672;10.250;2024-03-08T03:15:20;101881.00;;;-0.99;100.00
1736;BME280;865;53.672;10.250;2024-03-08T03:17:48;101881.44;;;-1.07;100.00
1736;BME280;865;53.672;10.250;2024-03-08T03:20:15;101880.84;;;-1.02;100.00
1736;BME280;865;53.672;10.250;2024-03-08T03:22:49;101877.38;;;-1.04;100.00
1736;BME280;865;53.672;10.250;2024-03-08T03:25:19;101883.94;;;-1.09;100.00
1736;BME280;865;53.672;10.250;2024-03-08T03:27:52;101883.94;;;-1.09;100.00
1736;BME280;865;53.672;10.250;2024-03-08T03:30:19;101880.56;;;-1.08;100.00
1736;BME280;865;53.672;10.250;2024-03-08T03:32:49;101878.00;;;-1.08;100.00
1736;BME280;865;53.672;10.250;2024-03-08T03:35:17;101879.41;;;-1.15;100.00
1736;BME280;865;53.672;10.250;2024-03-08T03:37:44;101876.78;;;-1.16;100.00
1736;BME280;865;53.672;10.250;2024-03-08T03:40:17;101877.88;;;-1.11;100.00
1736;BME280;865;53.672;10.250;2024-03-08T03:42:46;101872.34;;;-1.20;100.00
1736;BME280;865;53.672;10.250;2024-03-08T03:45:13;101871.50;;;-1.19;100.00
1736;BME280;865;53.672;10.250;2024-03-08T03:47:42;101878.53;;;-1.15;100.00
1736;BME280;865;53.672;10.250;2024-03-08T03:50:09;101874.22;;;-1.16;100.00
1736;BME280;865;53.672;10.250;2024-03-08T03:52:36;101876.84;;;-1.15;100.00
1736;BME280;865;53.672;10.250;2024-03-08T03:55:03;101863.31;;;-1.12;100.00
1736;BME280;865;53.672;10.250;2024-03-08T03:57:31;101870.78;;;-1.17;100.00
1736;BME280;865;53.672;10.250;2024-03-08T03:59:57;101871.50;;;-1.19;100.00
1736;BME280;865;53.672;10.250;2024-03-08T04:02:29;101871.81;;;-1.13;100.00
1736;BME280;865;53.672;10.250;2024-03-08T04:04:56;101874.97;;;-1.19;100.00
1736;BME280;865;53.672;10.250;2024-03-08T04:07:22;101873.47;;;-1.13;100.00
1736;BME280;865;53.672;10.250;2024-03-08T04:09:49;101871.06;;;-1.10;100.00
1736;BME280;865;53.672;10.250;2024-03-08T04:12:15;101872.34;;;-1.20;100.00
1736;BME280;865;53.672;10.250;2024-03-08T04:14:42;101869.72;;;-1.22;100.00
1736;BME280;865;53.672;10.250;2024-03-08T04:17:09;101864.78;;;-1.17;100.00
1736;BME280;865;53.672;10.250;2024-03-08T04:19:35;101867.94;;;-1.23;100.00
1736;BME280;865;53.672;10.250;2024-03-08T04:22:02;101867.06;;;-1.23;100.00
1736;BME280;865;53.672;10.250;2024-03-08T04:24:28;101862.03;;;-1.22;100.00
1736;BME280;865;53.672;10.250;2024-03-08T04:26:57;101869.63;;;-1.23;100.00
1736;BME280;865;53.672;10.250;2024-03-08T04:29:25;101865.25;;;-1.26;100.00
1736;BME280;865;53.672;10.250;2024-03-08T04:31:52;101868.53;;;-1.28;100.00
1736;BME280;865;53.672;10.250;2024-03-08T04:34:21;101865.97;;;-1.28;100.00
1736;BME280;865;53.672;10.250;2024-03-08T04:36:50;101860.66;;;-1.33;100.00
1736;BME280;865;53.672;10.250;2024-03-08T04:39:17;101862.63;;;-1.27;100.00
1736;BME280;865;53.672;10.250;2024-03-08T04:41:45;101859.06;;;-1.31;100.00
1736;BME280;865;53.672;10.250;2024-03-08T04:44:12;101861.63;;;-1.31;100.00
1736;BME280;865;53.672;10.250;2024-03-08T04:46:38;101864.81;;;-1.35;100.00
1736;BME280;865;53.672;10.250;2024-03-08T04:49:05;101850.34;;;-1.34;100.00
1736;BME280;865;53.672;10.250;2024-03-08T04:51:33;101855.31;;;-1.38;100.00
1736;BME280;865;53.672;10.250;2024-03-08T04:54:00;101853.44;;;-1.42;100.00
1736;BME280;865;53.672;10.250;2024-03-08T04:56:26;101845.47;;;-1.48;100.00
1736;BME280;865;53.672;10.250;2024-03-08T04:58:53;101842.81;;;-1.49;100.00
1736;BME280;865;53.672;10.250;2024-03-08T05:01:19;101841.94;;;-1.50;100.00
1736;BME280;865;53.672;10.250;2024-03-08T05:03:45;101843.78;;;-1.47;100.00
1736;BME280;865;53.672;10.250;2024-03-08T05:06:14;101841.31;;;-1.46;100.00
1736;BME280;865;53.672;10.250;2024-03-08T05:08:41;101847.16;;;-1.48;100.00
1736;BME280;865;53.672;10.250;2024-03-08T05:11:07;101840.56;;;-1.61;100.00
1736;BME280;865;53.672;10.250;2024-03-08T05:13:34;101848.22;;;-1.61;100.00
1736;BME280;865;53.672;10.250;2024-03-08T05:16:00;101842.53;;;-1.55;100.00
1736;BME280;865;53.672;10.250;2024-03-08T05:18:27;101838.13;;;-1.40;100.00
1736;BME280;865;53.672;10.250;2024-03-08T05:20:58;101837.66;;;-1.51;100.00
1736;BME280;865;53.672;10.250;2024-03-08T05:23:25;101833.69;;;-1.44;100.00
1736;BME280;865;53.672;10.250;2024-03-08T05:25:51;101842.03;;;-1.48;100.00
1736;BME280;865;53.672;10.250;2024-03-08T05:28:18;101838.13;;;-1.58;100.00
1736;BME280;865;53.672;10.250;2024-03-08T05:30:44;101839.09;;;-1.56;100.00
1736;BME280;865;53.672;10.250;2024-03-08T05:33:11;101836.00;;;-1.49;100.00
1736;BME280;865;53.672;10.250;2024-03-08T05:35:37;101830.03;;;-1.49;100.00
1736;BME280;865;53.672;10.250;2024-03-08T05:38:04;101837.78;;;-1.48;100.00
1736;BME280;865;53.672;10.250;2024-03-08T05:40:30;101830.84;;;-1.50;100.00
1736;BME280;865;53.672;10.250;2024-03-08T05:42:58;101832.25;;;-1.57;100.00
1736;BME280;865;53.672;10.250;2024-03-08T05:45:28;101830.75;;;-1.52;100.00
1736;BME280;865;53.672;10.250;2024-03-08T05:47:54;101832.81;;;-1.45;100.00
1736;BME280;865;53.672;10.250;2024-03-08T05:50:21;101832.22;;;-1.39;100.00
1736;BME280;865;53.672;10.250;2024-03-08T05:52:48;101825.88;;;-1.47;100.00
1736;BME280;865;53.672;10.250;2024-03-08T05:55:14;101825.94;;;-1.46;100.00
1736;BME280;865;53.672;10.250;2024-03-08T05:57:43;101829.56;;;-1.41;100.00
1736;BME280;865;53.672;10.250;2024-03-08T06:00:10;101832.13;;;-1.41;100.00
1736;BME280;865;53.672;10.250;2024-03-08T06:02:38;101824.75;;;-1.34;100.00
1736;BME280;865;53.672;10.250;2024-03-08T06:05:11;101825.84;;;-1.29;100.00
1736;BME280;865;53.672;10.250;2024-03-08T06:07:37;101822.31;;;-1.31;100.00
1736;BME280;865;53.672;10.250;2024-03-08T06:10:09;101827.97;;;-1.39;100.00
1736;BME280;865;53.672;10.250;2024-03-08T06:12:38;101823.00;;;-1.35;100.00
1736;BME280;865;53.672;10.250;2024-03-08T06:15:09;101822.19;;;-1.34;100.00
1736;BME280;865;53.672;10.250;2024-03-08T06:17:36;101828.16;;;-1.34;100.00
1736;BME280;865;53.672;10.250;2024-03-08T06:20:03;101831.25;;;-1.41;100.00
1736;BME280;865;53.672;10.250;2024-03-08T06:22:30;101823.00;;;-1.35;100.00
1736;BME280;865;53.672;10.250;2024-03-08T06:24:57;101826.22;;;-1.40;100.00
1736;BME280;865;53.672;10.250;2024-03-08T06:27:23;101819.94;;;-1.46;100.00
1736;BME280;865;53.672;10.250;2024-03-08T06:29:50;101812.63;;;-1.39;100.00
1736;BME280;865;53.672;10.250;2024-03-08T06:32:16;101818.69;;;-1.36;100.00
1736;BME280;865;53.672;10.250;2024-03-08T06:34:43;101813.34;;;-1.41;100.00
1736;BME280;865;53.672;10.250;2024-03-08T06:37:09;101814.75;;;-1.48;100.00
1736;BME280;865;53.672;10.250;2024-03-08T06:39:36;101806.53;;;-1.41;100.00
1736;BME280;865;53.672;10.250;2024-03-08T06:42:03;101808.50;;;-1.35;100.00
1736;BME280;865;53.672;10.250;2024-03-08T06:44:31;101801.84;;;-1.31;100.00
1736;BME280;865;53.672;10.250;2024-03-08T06:46:58;101810.34;;;-1.32;100.00
1736;BME280;865;53.672;10.250;2024-03-08T06:49:26;101805.91;;;-1.36;100.00
1736;BME280;865;53.672;10.250;2024-03-08T06:51:53;101801.13;;;-1.29;100.00
1736;BME280;865;53.672;10.250;2024-03-08T06:54:19;101807.09;;;-1.28;100.00
1736;BME280;865;53.672;10.250;2024-03-08T06:56:46;101806.69;;;-1.38;100.00
1736;BME280;865;53.672;10.250;2024-03-08T06:59:12;101808.38;;;-1.38;100.00
1736;BME280;865;53.672;10.250;2024-03-08T07:01:39;101804.53;;;-1.28;100.00
1736;BME280;865;53.672;10.250;2024-03-08T07:04:06;101811.28;;;-1.30;100.00
1736;BME280;865;53.672;10.250;2024-03-08T07:06:32;101809.59;;;-1.30;100.00
1736;BME280;865;53.672;10.250;2024-03-08T07:08:59;101810.84;;;-1.22;100.00
1736;BME280;865;53.672;10.250;2024-03-08T07:11:27;101800.66;;;-1.20;100.00
1736;BME280;865;53.672;10.250;2024-03-08T07:13:54;101807.50;;;-1.19;100.00
1736;BME280;865;53.672;10.250;2024-03-08T07:16:20;101810.97;;;-1.19;100.00
1736;BME280;865;53.672;10.250;2024-03-08T07:18:47;101809.97;;;-1.03;100.00
1736;BME280;865;53.672;10.250;2024-03-08T07:21:14;101799.72;;;-1.03;100.00
1736;BME280;865;53.672;10.250;2024-03-08T07:23:41;101803.84;;;-1.06;100.00
1736;BME280;865;53.672;10.250;2024-03-08T07:26:22;101799.66;;;-1.04;100.00
1736;BME280;865;53.672;10.250;2024-03-08T07:28:49;101792.66;;;-1.08;100.00
1736;BME280;865;53.672;10.250;2024-03-08T07:31:15;101792.31;;;-0.97;100.00
1736;BME280;865;53.672;10.250;2024-03-08T07:33:57;101797.44;;;-0.97;100.00
1736;BME280;865;53.672;10.250;2024-03-08T07:36:25;101796.16;;;-0.87;100.00
1736;BME280;865;53.672;10.250;2024-03-08T07:38:51;101797.97;;;-0.84;100.00
1736;BME280;865;53.672;10.250;2024-03-08T07:41:18;101800.94;;;-0.75;100.00
1736;BME280;865;53.672;10.250;2024-03-08T07:43:45;101801.81;;;-0.75;100.00
1736;BME280;865;53.672;10.250;2024-03-08T07:46:11;101801.19;;;-0.69;100.00
1736;BME280;865;53.672;10.250;2024-03-08T07:48:39;101801.16;;;-0.71;100.00
1736;BME280;865;53.672;10.250;2024-03-08T07:51:06;101803.53;;;-0.54;100.00
1736;BME280;865;53.672;10.250;2024-03-08T07:53:35;101804.69;;;-0.48;100.00
1736;BME280;865;53.672;10.250;2024-03-08T07:56:02;101807.66;;;-0.38;100.00
1736;BME280;865;53.672;10.250;2024-03-08T07:58:29;101804.38;;;-0.34;100.00
1736;BME280;865;53.672;10.250;2024-03-08T08:00:55;101802.94;;;-0.28;100.00
1736;BME280;865;53.672;10.250;2024-03-08T08:03:22;101806.34;;;-0.29;100.00
1736;BME280;865;53.672;10.250;2024-03-08T08:05:48;101798.81;;;-0.24;100.00
1736;BME280;865;53.672;10.250;2024-03-08T08:08:15;101803.53;;;-0.14;100.00
1736;BME280;865;53.672;10.250;2024-03-08T08:10:41;101801.34;;;-0.05;100.00
1736;BME280;865;53.672;10.250;2024-03-08T08:13:08;101797.53;;;0.07;100.00
1736;BME280;865;53.672;10.250;2024-03-08T08:15:35;101806.38;;;0.15;100.00
1736;BME280;865;53.672;10.250;2024-03-08T08:18:01;101799.34;;;0.09;100.00
1736;BME280;865;53.672;10.250;2024-03-08T08:20:33;101797.06;;;0.17;100.00
1736;BME280;865;53.672;10.250;2024-03-08T08:23:00;101799.94;;;0.25;100.00
1736;BME280;865;53.672;10.250;2024-03-08T08:25:26;101801.25;;;0.36;100.00
1736;BME280;865;53.672;10.250;2024-03-08T08:27:53;101799.34;;;0.32;100.00
1736;BME280;865;53.672;10.250;2024-03-08T08:30:20;101791.88;;;0.38;100.00
1736;BME280;865;53.672;10.250;2024-03-08T08:32:47;101787.19;;;0.49;100.00
1736;BME280;865;53.672;10.250;2024-03-08T08:35:14;101788.47;;;0.60;100.00
1736;BME280;865;53.672;10.250;2024-03-08T08:37:41;101798.66;;;0.58;100.00
1736;BME280;865;53.672;10.250;2024-03-08T08:40:08;101798.97;;;0.66;100.00
1736;BME280;865;53.672;10.250;2024-03-08T08:42:42;101800.69;;;0.89;100.00
1736;BME280;865;53.672;10.250;2024-03-08T08:45:09;101801.16;;;1.02;100.00
1736;BME280;865;53.672;10.250;2024-03-08T08:47:43;101799.03;;;0.91;100.00
1736;BME280;865;53.672;10.250;2024-03-08T08:50:09;101801.59;;;0.91;100.00
1736;BME280;865;53.672;10.250;2024-03-08T08:52:39;101791.44;;;1.19;100.00
1736;BME280;865;53.672;10.250;2024-03-08T08:55:06;101795.81;;;1.21;100.00
1736;BME280;865;53.672;10.250;2024-03-08T08:57:33;101792.66;;;1.28;100.00
1736;BME280;865;53.672;10.250;2024-03-08T08:59:59;101788.41;;;1.54;100.00
1736;BME280;865;53.672;10.250;2024-03-08T09:02:26;101785.53;;;1.71;100.00
1736;BME280;865;53.672;10.250;2024-03-08T09:04:53;101786.59;;;1.76;100.00
1736;BME280;865;53.672;10.250;2024-03-08T09:07:19;101787.19;;;1.94;100.00
1736;BME280;865;53.672;10.250;2024-03-08T09:09:46;101786.16;;;2.16;100.00
1736;BME280;865;53.672;10.250;2024-03-08T09:12:13;101788.63;;;2.13;100.00
1736;BME280;865;53.672;10.250;2024-03-08T09:14:40;101788.72;;;2.16;100.00
1736;BME280;865;53.672;10.250;2024-03-08T09:17:08;101779.63;;;2.27;100.00
1736;BME280;865;53.672;10.250;2024-03-08T09:19:35;101777.72;;;2.49;100.00
1736;BME280;865;53.672;10.250;2024-03-08T09:22:03;101780.19;;;2.46;100.00
1736;BME280;865;53.672;10.250;2024-03-08T09:24:30;101772.47;;;2.46;100.00
1736;BME280;865;53.672;10.250;2024-03-08T09:26:57;101765.38;;;2.67;100.00
1736;BME280;865;53.672;10.250;2024-03-08T09:29:25;101762.44;;;2.85;100.00
1736;BME280;865;53.672;10.250;2024-03-08T09:31:51;101754.09;;;2.94;100.00
1736;BME280;865;53.672;10.250;2024-03-08T09:34:18;101752.69;;;3.04;100.00
1736;BME280;865;53.672;10.250;2024-03-08T09:36:50;101759.66;;;3.09;100.00
1736;BME280;865;53.672;10.250;2024-03-08T09:39:18;101747.31;;;3.29;100.00
1736;BME280;865;53.672;10.250;2024-03-08T09:41:49;101742.00;;;3.23;100.00
1736;BME280;865;53.672;10.250;2024-03-08T09:44:16;101744.75;;;3.29;100.00
1736;BME280;865;53.672;10.250;2024-03-08T09:46:42;101742.63;;;3.46;100.00
1736;BME280;865;53.672;10.250;2024-03-08T09:49:09;101729.19;;;3.59;100.00
1736;BME280;865;53.672;10.250;2024-03-08T09:51:38;101730.75;;;3.53;100.00
1736;BME280;865;53.672;10.250;2024-03-08T09:54:07;101730.97;;;3.62;100.00
1736;BME280;865;53.672;10.250;2024-03-08T09:56:46;101724.72;;;3.87;100.00
1736;BME280;865;53.672;10.250;2024-03-08T09:59:13;101722.06;;;3.84;100.00
1736;BME280;865;53.672;10.250;2024-03-08T10:01:49;101713.66;;;3.93;100.00
1736;BME280;865;53.672;10.250;2024-03-08T10:04:16;101711.28;;;4.03;100.00
1736;BME280;865;53.672;10.250;2024-03-08T10:06:43;101706.72;;;3.92;100.00
1736;BME280;865;53.672;10.250;2024-03-08T10:09:13;101701.69;;;3.96;100.00
1736;BME280;865;53.672;10.250;2024-03-08T10:11:40;101691.56;;;4.07;100.00
1736;BME280;865;53.672;10.250;2024-03-08T10:14:08;101685.06;;;4.23;100.00
1736;BME280;865;53.672;10.250;2024-03-08T10:16:35;101689.13;;;4.11;100.00
1736;BME280;865;53.672;10.250;2024-03-08T10:19:02;101686.00;;;4.26;100.00
1736;BME280;865;53.672;10.250;2024-03-08T10:21:29;101684.31;;;4.28;100.00
1736;BME280;865;53.672;10.250;2024-03-08T10:23:55;101677.69;;;4.41;100.00
1736;BME280;865;53.672;10.250;2024-03-08T10:26:22;101674.44;;;4.50;100.00
1736;BME280;865;53.672;10.250;2024-03-08T10:28:51;101667.66;;;4.56;100.00
1736;BME280;865;53.672;10.250;2024-03-08T10:31:20;101667.81;;;4.64;100.00
1736;BME280;865;53.672;10.250;2024-03-08T10:33:47;101664.09;;;4.94;100.00
1736;BME280;865;53.672;10.250;2024-03-08T10:36:14;101654.50;;;4.88;100.00
1736;BME280;865;53.672;10.250;2024-03-08T10:38:42;101659.09;;;5.05;100.00
1736;BME280;865;53.672;10.250;2024-03-08T10:41:13;101655.88;;;5.18;100.00
1736;BME280;865;53.672;10.250;2024-03-08T10:44:06;101643.00;;;5.21;100.00
1736;BME280;865;53.672;10.250;2024-03-08T10:46:47;101641.34;;;5.24;100.00
1736;BME280;865;53.672;10.250;2024-03-08T10:49:25;101639.72;;;5.31;100.00
1736;BME280;865;53.672;10.250;2024-03-08T10:51:57;101644.78;;;5.25;100.00
1736;BME280;865;53.672;10.250;2024-03-08T10:54:26;101628.34;;;5.23;100.00
1736;BME280;865;53.672;10.250;2024-03-08T10:56:53;101625.72;;;5.20;100.00
1736;BME280;865;53.672;10.250;2024-03-08T10:59:22;101624.78;;;5.15;100.00
1736;BME280;865;53.672;10.250;2024-03-08T11:01:50;101617.28;;;5.30;100.00
1736;BME280;865;53.672;10.250;2024-03-08T11:04:17;101611.31;;;5.34;100.00
1736;BME280;865;53.672;10.250;2024-03-08T11:06:50;101604.81;;;5.61;100.00
1736;BME280;865;53.672;10.250;2024-03-08T11:09:39;101606.97;;;5.33;100.00
1736;BME280;865;53.672;10.250;2024-03-08T11:12:28;101594.19;;;5.42;100.00
1736;BME280;865;53.672;10.250;2024-03-08T11:14:59;101594.41;;;5.58;100.00
1736;BME280;865;53.672;10.250;2024-03-08T11:19:58;101584.34;;;5.78;100.00
1736;BME280;865;53.672;10.250;2024-03-08T11:22:29;101580.69;;;5.65;100.00
1736;BME280;865;53.672;10.250;2024-03-08T11:25:04;101578.16;;;5.68;100.00
1736;BME280;865;53.672;10.250;2024-03-08T11:27:36;101581.72;;;5.76;100.00
1736;BME280;865;53.672;10.250;2024-03-08T11:30:05;101576.63;;;5.82;100.00
1736;BME280;865;53.672;10.250;2024-03-08T11:32:45;101567.84;;;5.71;100.00
1736;BME280;865;53.672;10.250;2024-03-08T11:35:22;101569.97;;;6.00;100.00
1736;BME280;865;53.672;10.250;2024-03-08T11:37:51;101565.44;;;5.85;100.00
1736;BME280;865;53.672;10.250;2024-03-08T11:40:18;101551.50;;;5.75;100.00
1736;BME280;865;53.672;10.250;2024-03-08T11:42:47;101551.97;;;6.09;100.00
1736;BME280;865;53.672;10.250;2024-03-08T11:45:18;101547.50;;;5.96;100.00
1736;BME280;865;53.672;10.250;2024-03-08T11:47:47;101545.94;;;6.10;100.00
1736;BME280;865;53.672;10.250;2024-03-08T11:50:14;101545.97;;;6.13;100.00
1736;BME280;865;53.672;10.250;2024-03-08T11:52:41;101539.00;;;6.09;100.00
1736;BME280;865;53.672;10.250;2024-03-08T11:55:09;101535.66;;;6.16;100.00
1736;BME280;865;53.672;10.250;2024-03-08T11:57:40;101536.69;;;6.33;100.00
1736;BME280;865;53.672;10.250;2024-03-08T12:00:16;101531.50;;;6.32;100.00
1736;BME280;865;53.672;10.250;2024-03-08T12:03:08;101526.47;;;6.46;100.00
1736;BME280;865;53.672;10.250;2024-03-08T12:05:38;101523.00;;;6.48;100.00
1736;BME280;865;53.672;10.250;2024-03-08T12:08:05;101521.06;;;6.27;100.00
1736;BME280;865;53.672;10.250;2024-03-08T12:10:33;101521.00;;;6.21;100.00
1736;BME280;865;53.672;10.250;2024-03-08T12:13:01;101519.22;;;6.14;100.00
1736;BME280;865;53.672;10.250;2024-03-08T12:15:29;101519.25;;;6.17;100.00
1736;BME280;865;53.672;10.250;2024-03-08T12:17:59;101506.56;;;6.45;100.00
1736;BME280;865;53.672;10.250;2024-03-08T12:20:28;101504.97;;;6.57;100.00
1736;BME280;865;53.672;10.250;2024-03-08T12:22:58;101504.06;;;6.52;100.00
1736;BME280;865;53.672;10.250;2024-03-08T12:25:27;101495.59;;;6.73;100.00
1736;BME280;865;53.672;10.250;2024-03-08T12:27:54;101485.34;;;6.87;100.00
1736;BME280;865;53.672;10.250;2024-03-08T12:30:24;101481.03;;;6.88;100.00
1736;BME280;865;53.672;10.250;2024-03-08T12:32:57;101480.06;;;6.76;100.00
1736;BME280;865;53.672;10.250;2024-03-08T12:35:26;101477.34;;;6.61;98.48
1736;BME280;865;53.672;10.250;2024-03-08T12:37:54;101477.38;;;6.66;100.00
1736;BME280;865;53.672;10.250;2024-03-08T12:40:31;101462.06;;;6.98;100.00
1736;BME280;865;53.672;10.250;2024-03-08T12:42:59;101456.09;;;7.10;100.00
1736;BME280;865;53.672;10.250;2024-03-08T12:45:25;101461.25;;;7.06;96.73
1736;BME280;865;53.672;10.250;2024-03-08T12:47:55;101457.78;;;7.03;96.69
1736;BME280;865;53.672;10.250;2024-03-08T12:50:23;101452.69;;;7.21;95.80
1736;BME280;865;53.672;10.250;2024-03-08T12:52:51;101447.44;;;7.14;93.43
1736;BME280;865;53.672;10.250;2024-03-08T12:55:21;101436.06;;;6.89;90.96
1736;BME280;865;53.672;10.250;2024-03-08T12:57:47;101433.59;;;7.08;94.08
1736;BME280;865;53.672;10.250;2024-03-08T13:00:15;101430.91;;;6.95;88.73
1736;BME280;865;53.672;10.250;2024-03-08T13:02:49;101417.19;;;7.08;91.41
1736;BME280;865;53.672;10.250;2024-03-08T13:05:18;101418.03;;;7.07;88.17
1736;BME280;865;53.672;10.250;2024-03-08T13:07:46;101422.22;;;6.87;87.30
1736;BME280;865;53.672;10.250;2024-03-08T13:10:13;101418.75;;;6.81;87.35
1736;BME280;865;53.672;10.250;2024-03-08T13:12:43;101417.00;;;6.83;85.86